This is the latest recevied weather packets stored in our database for station/object LRCK. If no packets are shown the sender has not sent any weather packets the latest 1 day(s).
| Time | Temp. | Humidity | Pressure | Rain* | Wind** | Luminosity | Snow |
|---|---|---|---|---|---|---|---|
| 1778101397 | 6.11° C | 100% | 1017 hPa | - | - | - | - |
| 1778100498 | 6.11° C | 93% | 1017 hPa | - | - | - | - |
| 1778097797 | 7.22° C | 100% | 1017 hPa | - | - | - | - |
| 1778096021 | 7.78° C | 100% | 1017 hPa | - | - | - | - |
| 1778095098 | 7.78° C | 100% | 1017 hPa | - | - | - | - |
| 1778086997 | 12.22° C | 88% | 1016 hPa | - | - | - | - |
| 1778085197 | 12.78° C | 82% | 1016 hPa | - | - | - | - |
| 1778082498 | 16.11° C | 68% | 1016 hPa | - | - | - | - |
| 1778080697 | 17.22° C | 59% | 1016 hPa | - | - | - | - |
| 1778078009 | 17.22° C | 59% | 1016 hPa | - | - | - | - |
| 1778073497 | 18.89° C | 56% | 1016 hPa | - | - | - | - |
| 1778072606 | 18.89° C | 56% | 1016 hPa | - | - | - | - |
| 1778071698 | 18.89° C | 52% | 1016 hPa | - | - | - | - |
| 1778068097 | 18.89° C | 52% | 1017 hPa | - | - | - | - |
| 1778066297 | 18.89° C | 56% | 1017 hPa | - | - | - | - |
| 1778065397 | 18.89° C | 56% | 1017 hPa | - | - | - | - |
| 1778061797 | 17.78° C | 52% | 1017 hPa | - | - | - | - |
| 1778059997 | 17.78° C | 52% | 1017 hPa | - | - | - | - |
| 1778056397 | 17.78° C | 52% | 1017 hPa | - | - | - | - |
| 1778055494 | 17.22° C | 56% | 1017 hPa | - | - | - | - |
| 1778053698 | 17.22° C | 49% | 1017 hPa | - | - | - | - |
| 1778052797 | 17.22° C | 49% | 1017 hPa | - | - | - | - |
| 1778051897 | 16.11° C | 55% | 1016 hPa | - | - | - | - |
| 1778050997 | 16.11° C | 55% | 1016 hPa | - | - | - | - |
| 1778050097 | 15° C | 63% | 1016 hPa | - | - | - | - |
* Rain since midnight (hover to see other rain measurements)
** Current wind speed in m/s (hover to see current wind gust speed)